Time;durP1;ratioP1;P1;durP2;ratioP2;P2;SDS_P1;SDS_P2;PMS_P1;PMS_P2;Temp;Humidity;BMP_temperature;BMP_pressure;BME280_temperature;BME280_humidity;BME280_pressure;Samples;Min_cycle;Max_cycle;Signal;HPM_P1;HPM_P2
2021/07/19 00:01:48;;;;;;;12.02;8.85;;;17.90;81.10;;;;;;5054614;28;20133;-78
2021/07/19 00:04:13;;;;;;;12.20;8.07;;;18.00;81.00;;;;;;5054701;28;20049;-76
2021/07/19 00:06:40;;;;;;;16.00;9.10;;;18.00;80.70;;;;;;5055930;28;20029;-75
2021/07/19 00:09:05;;;;;;;14.07;8.68;;;18.10;80.50;;;;;;5060087;28;20052;-75
2021/07/19 00:11:31;;;;;;;13.90;8.50;;;18.00;80.60;;;;;;5045472;28;20458;-76
2021/07/19 00:13:57;;;;;;;16.75;8.68;;;17.90;80.80;;;;;;5056483;28;20025;-77
2021/07/19 00:16:23;;;;;;;12.13;8.38;;;17.80;81.10;;;;;;5054131;28;20366;-78
2021/07/19 00:18:49;;;;;;;9.98;7.93;;;17.70;81.90;;;;;;5053955;28;20100;-77
2021/07/19 00:21:15;;;;;;;12.70;8.65;;;17.70;82.00;;;;;;5053765;28;20033;-78
2021/07/19 00:23:41;;;;;;;12.18;8.13;;;17.70;82.10;;;;;;5053921;28;20025;-78
2021/07/19 00:26:06;;;;;;;12.55;7.90;;;17.60;82.10;;;;;;5053997;28;20021;-78
2021/07/19 00:28:33;;;;;;;13.77;8.00;;;17.60;82.30;;;;;;5053744;28;20020;-78
2021/07/19 00:30:59;;;;;;;12.23;7.72;;;17.60;82.50;;;;;;5053697;28;20079;-78
2021/07/19 00:33:25;;;;;;;15.02;7.95;;;17.60;82.60;;;;;;5054069;28;20366;-76
2021/07/19 00:35:51;;;;;;;14.18;7.68;;;17.50;82.80;;;;;;5054577;28;20047;-75
2021/07/19 00:38:16;;;;;;;14.38;8.27;;;17.40;83.00;;;;;;5056815;28;20020;-76
2021/07/19 00:40:42;;;;;;;12.80;7.13;;;17.30;83.40;;;;;;5066273;28;20051;-76
2021/07/19 00:43:08;;;;;;;11.77;7.97;;;17.30;83.40;;;;;;5070621;28;20033;-77
2021/07/19 00:45:35;;;;;;;12.38;6.82;;;17.30;83.30;;;;;;5062121;28;20023;-77
2021/07/19 00:48:02;;;;;;;13.35;7.57;;;17.30;83.00;;;;;;5055410;28;20358;-77
2021/07/19 00:50:33;;;;;;;11.82;7.00;;;17.30;83.20;;;;;;5053305;28;20017;-76
2021/07/19 00:52:59;;;;;;;10.45;7.30;;;17.30;83.20;;;;;;5053318;28;20104;-77
2021/07/19 00:55:31;;;;;;;12.25;7.75;;;17.30;83.20;;;;;;5053218;28;20021;-76
2021/07/19 00:57:58;;;;;;;8.80;6.70;;;17.30;83.10;;;;;;5053554;28;20064;-76
2021/07/19 01:00:24;;;;;;;11.68;6.85;;;17.30;83.00;;;;;;5053173;28;20056;-75
2021/07/19 01:02:51;;;;;;;9.40;6.07;;;17.30;83.10;;;;;;5052797;28;20147;-76
2021/07/19 01:05:17;;;;;;;7.90;5.93;;;17.20;83.00;;;;;;5051894;28;20029;-75
2021/07/19 01:07:44;;;;;;;8.82;6.07;;;17.20;83.10;;;;;;5052658;28;20029;-79
2021/07/19 01:10:17;;;;;;;11.35;5.63;;;17.10;83.50;;;;;;5052945;28;20021;-78
2021/07/19 01:12:48;;;;;;;8.75;6.03;;;17.10;83.60;;;;;;5053453;28;20397;-78
2021/07/19 01:15:14;;;;;;;8.00;5.30;;;17.20;83.20;;;;;;5054569;28;20024;-78
2021/07/19 01:17:41;;;;;;;12.98;6.30;;;17.20;83.10;;;;;;5064731;28;20036;-76
2021/07/19 01:20:08;;;;;;;7.85;5.72;;;17.10;83.10;;;;;;5054759;28;20048;-78
2021/07/19 01:23:06;;;;;;;9.82;5.97;;;17.20;83.20;;;;;;5052882;28;20037;-79
2021/07/19 01:26:02;;;;;;;9.00;5.43;;;17.20;83.10;;;;;;5052950;28;20458;-79
2021/07/19 01:28:43;;;;;;;8.98;6.35;;;17.30;82.90;;;;;;5052903;28;20056;-79
2021/07/19 01:31:12;;;;;;;8.95;5.55;;;17.30;82.40;;;;;;5052788;28;20032;-79
2021/07/19 01:33:42;;;;;;;7.63;5.40;;;17.30;81.80;;;;;;5052898;28;20020;-76
2021/07/19 01:36:09;;;;;;;8.95;5.40;;;17.40;81.60;;;;;;5052833;28;20047;-74
2021/07/19 01:38:35;;;;;;;7.13;5.13;;;17.30;82.30;;;;;;5034802;28;20025;-75
2021/07/19 01:41:01;;;;;;;8.02;5.53;;;17.40;81.40;;;;;;5052644;28;20063;-77
2021/07/19 01:43:27;;;;;;;8.73;5.43;;;17.40;81.20;;;;;;5052701;28;20385;-76
2021/07/19 01:45:53;;;;;;;9.32;5.78;;;17.30;80.90;;;;;;5052694;28;20029;-74
2021/07/19 01:48:20;;;;;;;8.02;5.97;;;17.30;80.80;;;;;;5052435;28;20040;-74
2021/07/19 01:50:46;;;;;;;7.32;5.25;;;17.20;80.80;;;;;;5052574;28;20359;-73
2021/07/19 01:53:13;;;;;;;8.63;5.28;;;17.10;81.00;;;;;;5052612;28;20025;-73
2021/07/19 01:55:39;;;;;;;8.85;5.05;;;17.10;81.20;;;;;;5052854;28;20111;-73
2021/07/19 01:58:05;;;;;;;8.95;5.38;;;17.10;81.40;;;;;;5052703;28;20013;-73
2021/07/19 02:00:30;;;;;;;7.50;4.90;;;17.00;81.40;;;;;;5052685;28;20025;-73
2021/07/19 02:02:56;;;;;;;9.48;5.57;;;17.00;81.40;;;;;;5050980;28;20083;-73
2021/07/19 02:05:26;;;;;;;8.73;5.20;;;17.00;81.40;;;;;;5052518;28;20440;-73
2021/07/19 02:07:54;;;;;;;9.10;6.15;;;17.00;81.60;;;;;;5052437;28;20420;-73
2021/07/19 02:10:20;;;;;;;8.23;5.20;;;16.90;81.80;;;;;;5052385;28;20121;-73
2021/07/19 02:12:47;;;;;;;6.68;5.05;;;17.00;81.80;;;;;;5052436;28;20068;-74
2021/07/19 02:15:16;;;;;;;9.40;5.60;;;16.90;81.90;;;;;;5052369;28;20052;-73
2021/07/19 02:17:47;;;;;;;6.78;4.82;;;16.90;81.80;;;;;;5052522;28;20025;-73
2021/07/19 02:20:15;;;;;;;7.35;5.28;;;16.80;81.70;;;;;;5054387;28;20025;-73
2021/07/19 02:22:42;;;;;;;6.50;4.82;;;16.80;82.00;;;;;;5056048;28;20032;-74
2021/07/19 02:25:10;;;;;;;6.60;5.10;;;16.70;82.50;;;;;;5056030;28;20112;-73
2021/07/19 02:27:41;;;;;;;8.73;5.15;;;16.80;82.70;;;;;;5056091;28;20021;-73
2021/07/19 02:30:09;;;;;;;6.40;4.45;;;16.80;82.60;;;;;;5055912;28;20450;-75
2021/07/19 02:32:40;;;;;;;7.55;4.50;;;16.80;82.40;;;;;;5038001;28;20381;-75
2021/07/19 02:35:06;;;;;;;8.32;4.53;;;16.80;82.30;;;;;;5055903;28;20025;-76
2021/07/19 02:37:37;;;;;;;4.57;3.95;;;16.80;81.90;;;;;;5055861;28;20043;-75
2021/07/19 02:40:04;;;;;;;6.63;4.47;;;16.90;81.70;;;;;;5055810;28;20056;-75
2021/07/19 02:42:30;;;;;;;5.68;3.97;;;16.80;81.40;;;;;;5055711;28;20043;-75
2021/07/19 02:44:56;;;;;;;7.13;4.47;;;16.90;81.50;;;;;;5055887;28;20108;-75
2021/07/19 02:47:25;;;;;;;7.65;4.28;;;16.80;81.40;;;;;;5055715;28;20033;-74
2021/07/19 02:49:51;;;;;;;5.30;3.88;;;16.70;81.60;;;;;;5037658;28;20079;-74
2021/07/19 02:52:17;;;;;;;8.75;4.43;;;16.60;81.60;;;;;;5055560;28;20025;-75
2021/07/19 02:54:43;;;;;;;10.50;4.28;;;16.60;81.60;;;;;;5055528;28;20021;-74
2021/07/19 02:57:11;;;;;;;7.75;3.80;;;16.50;81.90;;;;;;5055284;28;20120;-74
2021/07/19 02:59:36;;;;;;;7.57;4.22;;;16.50;82.10;;;;;;5055318;28;20474;-74
2021/07/19 03:02:03;;;;;;;6.22;3.70;;;16.50;82.10;;;;;;5055222;28;20071;-74
2021/07/19 03:04:30;;;;;;;6.18;3.97;;;16.50;82.10;;;;;;5055124;28;20041;-74
2021/07/19 03:07:03;;;;;;;4.75;3.70;;;16.50;82.00;;;;;;5037275;28;20505;-74
2021/07/19 03:09:33;;;;;;;5.50;4.18;;;16.50;82.10;;;;;;5055224;28;20090;-73
2021/07/19 03:12:00;;;;;;;5.78;3.58;;;16.50;82.30;;;;;;5055165;28;20512;-73
2021/07/19 03:14:29;;;;;;;4.50;3.70;;;16.50;83.00;;;;;;5055150;28;20109;-74
2021/07/19 03:16:55;;;;;;;5.15;3.15;;;16.50;82.00;;;;;;5054928;28;20469;-74
2021/07/19 03:19:23;;;;;;;4.55;3.50;;;16.50;81.90;;;;;;5055064;28;20051;-73
2021/07/19 03:21:53;;;;;;;6.60;3.63;;;16.50;81.70;;;;;;5054884;28;20115;-73
2021/07/19 03:24:21;;;;;;;7.95;3.90;;;16.50;81.60;;;;;;5055724;28;20021;-74
2021/07/19 03:26:46;;;;;;;7.15;3.88;;;16.50;81.60;;;;;;5058778;28;20116;-74
2021/07/19 03:29:13;;;;;;;6.60;3.92;;;16.40;81.70;;;;;;5060632;28;20086;-74
2021/07/19 03:31:39;;;;;;;5.18;3.50;;;16.40;81.90;;;;;;5056340;28;20040;-74
2021/07/19 03:34:06;;;;;;;4.82;3.45;;;16.50;82.10;;;;;;5055369;28;20053;-74
2021/07/19 03:36:32;;;;;;;8.95;3.33;;;16.50;82.20;;;;;;5036840;28;20381;-73
2021/07/19 03:39:00;;;;;;;4.95;3.70;;;16.50;82.00;;;;;;5054569;28;20096;-74
2021/07/19 03:41:29;;;;;;;5.43;3.65;;;16.40;81.70;;;;;;5054385;28;20029;-73
2021/07/19 03:43:56;;;;;;;5.95;3.22;;;16.40;81.90;;;;;;5054509;28;20029;-74
2021/07/19 03:46:22;;;;;;;5.20;3.55;;;16.30;82.00;;;;;;5054852;28;20022;-74
2021/07/19 03:48:48;;;;;;;4.30;3.30;;;16.30;82.10;;;;;;5054339;28;20029;-74
2021/07/19 03:51:14;;;;;;;3.90;3.47;;;16.20;81.90;;;;;;5054225;28;20063;-73
2021/07/19 03:53:41;;;;;;;4.95;3.30;;;16.20;82.00;;;;;;5054287;28;20029;-73
2021/07/19 03:56:07;;;;;;;7.50;3.97;;;16.20;82.10;;;;;;5054052;28;20531;-73
2021/07/19 03:58:35;;;;;;;6.90;4.20;;;16.20;82.20;;;;;;5054073;28;20030;-73
2021/07/19 04:01:01;;;;;;;5.10;4.18;;;16.20;82.30;;;;;;5054056;28;20021;-73
2021/07/19 04:03:31;;;;;;;8.45;4.30;;;16.20;82.50;;;;;;5053983;28;20056;-73
2021/07/19 04:06:02;;;;;;;4.93;3.63;;;16.30;82.70;;;;;;5054041;28;20029;-74
2021/07/19 04:08:32;;;;;;;5.88;4.40;;;16.30;82.70;;;;;;5054006;28;20032;-74
2021/07/19 04:11:01;;;;;;;8.23;4.30;;;16.30;82.50;;;;;;5053890;28;20032;-73
2021/07/19 04:13:28;;;;;;;9.30;4.32;;;16.30;82.50;;;;;;5053989;28;20025;-74
2021/07/19 04:15:54;;;;;;;7.30;4.22;;;16.30;83.20;;;;;;5053956;28;20474;-74
2021/07/19 04:18:24;;;;;;;4.05;3.47;;;16.30;82.30;;;;;;5053991;28;20118;-73
2021/07/19 04:20:51;;;;;;;8.15;4.25;;;16.30;82.20;;;;;;5053747;28;20017;-74
2021/07/19 04:23:18;;;;;;;6.35;3.83;;;16.30;82.30;;;;;;5053716;28;20126;-74
2021/07/19 04:25:46;;;;;;;5.45;3.40;;;16.40;82.10;;;;;;5053815;28;20025;-78
2021/07/19 04:28:15;;;;;;;7.22;3.75;;;16.40;82.00;;;;;;5053676;28;20397;-74
2021/07/19 04:30:41;;;;;;;7.80;3.38;;;16.40;81.90;;;;;;5053636;28;20041;-75
2021/07/19 04:33:07;;;;;;;4.95;3.63;;;16.50;81.90;;;;;;5035591;28;20025;-74
2021/07/19 04:35:33;;;;;;;6.10;2.92;;;16.50;82.00;;;;;;5053662;28;20020;-74
2021/07/19 04:37:58;;;;;;;4.93;3.67;;;16.50;82.20;;;;;;5053418;28;20025;-74
2021/07/19 04:40:26;;;;;;;6.18;4.15;;;16.60;82.20;;;;;;5053513;28;20055;-77
2021/07/19 04:42:52;;;;;;;6.22;3.55;;;16.60;82.40;;;;;;5053125;28;20029;-78
2021/07/19 04:45:20;;;;;;;7.20;3.85;;;16.60;82.50;;;;;;5035607;28;20027;-75
2021/07/19 04:47:49;;;;;;;5.03;3.80;;;16.60;82.80;;;;;;5053401;28;20048;-74
2021/07/19 04:50:16;;;;;;;8.15;4.03;;;16.60;82.90;;;;;;5053413;28;20538;-74
2021/07/19 04:52:42;;;;;;;6.97;4.60;;;16.60;83.00;;;;;;5053359;28;20024;-73
2021/07/19 04:55:11;;;;;;;6.28;4.18;;;16.60;82.90;;;;;;5053378;28;20549;-74
2021/07/19 04:57:41;;;;;;;10.82;4.72;;;16.70;82.90;;;;;;5053271;28;20039;-74
2021/07/19 05:00:07;;;;;;;5.82;4.05;;;16.70;83.00;;;;;;5053099;28;20040;-73
2021/07/19 05:02:35;;;;;;;4.13;3.65;;;16.80;82.60;;;;;;5052868;28;20094;-74
2021/07/19 05:05:01;;;;;;;5.40;3.88;;;16.90;82.40;;;;;;5052826;28;20447;-74
2021/07/19 05:07:32;;;;;;;8.02;3.80;;;17.10;82.10;;;;;;5052860;28;20127;-74
2021/07/19 05:10:00;;;;;;;5.55;3.70;;;17.20;81.50;;;;;;5052934;28;20063;-74
2021/07/19 05:12:26;;;;;;;4.72;3.42;;;17.20;81.10;;;;;;5052918;28;20032;-74
2021/07/19 05:14:53;;;;;;;6.03;4.10;;;17.30;80.90;;;;;;5052661;28;20029;-74
2021/07/19 05:17:20;;;;;;;4.95;3.85;;;17.40;80.90;;;;;;5052502;28;20330;-73
2021/07/19 05:19:46;;;;;;;5.65;3.75;;;17.50;81.00;;;;;;5052279;28;20025;-73
2021/07/19 05:22:16;;;;;;;7.85;4.03;;;17.50;80.60;;;;;;5052323;28;20067;-74
2021/07/19 05:24:42;;;;;;;5.75;3.67;;;17.60;80.40;;;;;;5052375;28;20025;-73
2021/07/19 05:27:11;;;;;;;5.63;3.10;;;17.70;80.20;;;;;;5052074;28;20440;-73
2021/07/19 05:29:38;;;;;;;5.88;4.00;;;17.80;79.60;;;;;;5051932;28;20104;-77
2021/07/19 05:32:07;;;;;;;5.72;4.10;;;17.80;79.50;;;;;;5034506;28;20021;-74
2021/07/19 05:34:33;;;;;;;5.28;3.90;;;17.90;79.50;;;;;;5052371;28;20025;-78
2021/07/19 05:37:00;;;;;;;4.85;4.18;;;17.90;79.50;;;;;;5052341;28;20022;-77
2021/07/19 05:39:26;;;;;;;8.68;5.75;;;18.10;79.60;;;;;;5034521;28;20036;-75
2021/07/19 05:41:51;;;;;;;11.48;8.23;;;18.10;79.40;;;;;;5052366;28;20033;-79
2021/07/19 05:44:17;;;;;;;11.18;8.32;;;18.30;79.40;;;;;;5052626;28;20100;-74
2021/07/19 05:46:43;;;;;;;7.88;6.63;;;18.30;79.10;;;;;;5052519;28;20025;-79
2021/07/19 05:49:08;;;;;;;7.13;5.03;;;18.40;78.80;;;;;;5052441;28;20052;-75
2021/07/19 05:51:34;;;;;;;5.65;4.10;;;18.50;78.40;;;;;;5052519;28;20032;-74
2021/07/19 05:54:01;;;;;;;4.85;4.05;;;18.60;78.10;;;;;;5052373;28;20025;-75
2021/07/19 05:56:27;;;;;;;6.47;4.10;;;18.80;77.70;;;;;;5056418;28;20021;-74
2021/07/19 05:58:53;;;;;;;8.70;4.45;;;18.90;77.20;;;;;;5056441;28;20053;-74
2021/07/19 06:01:18;;;;;;;6.35;4.50;;;19.10;76.80;;;;;;5056393;28;20379;-74
2021/07/19 06:03:44;;;;;;;7.78;4.40;;;19.20;76.40;;;;;;5055857;28;20053;-74
2021/07/19 06:06:10;;;;;;;8.27;4.30;;;19.30;76.00;;;;;;5056214;28;20045;-73
2021/07/19 06:08:35;;;;;;;6.35;4.35;;;19.50;75.60;;;;;;5056258;28;20021;-72
2021/07/19 06:11:01;;;;;;;6.40;4.90;;;19.50;75.20;;;;;;5056019;28;20036;-73
2021/07/19 06:13:26;;;;;;;7.55;5.05;;;19.50;75.50;;;;;;5056183;28;20025;-73
2021/07/19 06:15:52;;;;;;;7.15;5.10;;;19.50;75.70;;;;;;5055999;28;20449;-73
2021/07/19 06:18:18;;;;;;;7.55;5.18;;;19.50;75.70;;;;;;5054965;28;20104;-73
2021/07/19 06:20:43;;;;;;;7.95;4.47;;;19.60;75.90;;;;;;5054780;28;20473;-75
2021/07/19 06:23:09;;;;;;;9.93;5.60;;;19.70;75.60;;;;;;5055490;28;20040;-74
2021/07/19 06:25:37;;;;;;;10.38;5.65;;;19.60;75.10;;;;;;5055289;28;20032;-73
2021/07/19 06:28:04;;;;;;;7.18;5.80;;;19.70;75.30;;;;;;5055440;28;20024;-74
2021/07/19 06:30:30;;;;;;;10.00;6.00;;;19.80;75.10;;;;;;5055593;28;20047;-74
2021/07/19 06:32:57;;;;;;;8.35;5.28;;;19.90;75.30;;;;;;5055313;28;20047;-75
2021/07/19 06:35:23;;;;;;;11.80;6.00;;;19.80;75.70;;;;;;5055334;28;20124;-74
2021/07/19 06:37:48;;;;;;;12.25;6.00;;;19.80;76.10;;;;;;5055458;28;20483;-74
2021/07/19 06:40:14;;;;;;;11.43;6.70;;;19.90;76.00;;;;;;5055338;28;20048;-75
2021/07/19 06:42:40;;;;;;;7.95;6.13;;;19.90;75.80;;;;;;5055106;28;20028;-75
2021/07/19 06:45:10;;;;;;;11.60;6.43;;;19.70;76.10;;;;;;5055322;28;20071;-75
2021/07/19 06:47:35;;;;;;;9.05;6.53;;;19.70;76.20;;;;;;5055395;28;20056;-74
2021/07/19 06:50:02;;;;;;;10.65;7.18;;;19.60;76.10;;;;;;5055371;28;20025;-76
2021/07/19 06:52:27;;;;;;;11.90;6.50;;;19.50;77.30;;;;;;5055496;28;20489;-76
2021/07/19 06:54:53;;;;;;;12.30;6.78;;;19.50;77.60;;;;;;5055397;28;20037;-77
2021/07/19 06:57:19;;;;;;;10.20;6.60;;;19.70;76.70;;;;;;5037224;28;20574;-76
2021/07/19 06:59:45;;;;;;;8.80;6.18;;;19.80;77.90;;;;;;5055214;28;20319;-76
2021/07/19 07:02:11;;;;;;;12.10;6.80;;;20.00;77.60;;;;;;5054811;28;20516;-76
2021/07/19 07:04:37;;;;;;;11.18;5.78;;;20.30;76.40;;;;;;5054754;28;20048;-77
2021/07/19 07:07:03;;;;;;;16.65;7.03;;;20.50;76.00;;;;;;5053409;28;20079;-81
2021/07/19 07:09:29;;;;;;;17.50;7.03;;;20.80;74.70;;;;;;5054844;28;20123;-78
2021/07/19 07:11:55;;;;;;;11.68;6.60;;;21.00;73.70;;;;;;5054900;28;20025;-78
2021/07/19 07:14:21;;;;;;;12.80;6.72;;;21.20;72.90;;;;;;5054849;28;20496;-78
2021/07/19 07:16:47;;;;;;;13.20;6.93;;;21.10;72.90;;;;;;5054639;28;20025;-78
2021/07/19 07:19:12;;;;;;;10.07;6.72;;;20.90;73.10;;;;;;5054788;28;20481;-77
2021/07/19 07:21:38;;;;;;;10.13;5.60;;;20.70;73.00;;;;;;5054542;28;20037;-78
2021/07/19 07:24:04;;;;;;;9.27;5.65;;;20.70;74.10;;;;;;5054467;28;20029;-77
2021/07/19 07:26:29;;;;;;;11.32;6.95;;;20.90;73.90;;;;;;5054299;28;20032;-78
2021/07/19 07:28:55;;;;;;;9.80;7.03;;;21.10;72.90;;;;;;5054488;28;20067;-78
2021/07/19 07:31:30;;;;;;;7.90;5.90;;;21.10;72.70;;;;;;5054557;28;20053;-78
2021/07/19 07:33:58;;;;;;;10.63;6.13;;;21.30;72.90;;;;;;5036716;28;20112;-78
2021/07/19 07:36:29;;;;;;;9.55;7.28;;;21.40;72.00;;;;;;5036564;28;20059;-78
2021/07/19 07:38:54;;;;;;;10.57;6.07;;;21.50;71.50;;;;;;5036424;28;20120;-78
2021/07/19 07:41:22;;;;;;;12.02;7.05;;;21.50;71.40;;;;;;5054363;28;20488;-78
2021/07/19 07:43:47;;;;;;;10.63;6.10;;;21.70;71.00;;;;;;5054326;28;20033;-78
2021/07/19 07:46:14;;;;;;;10.93;7.20;;;21.70;70.90;;;;;;5054080;28;20089;-78
2021/07/19 07:48:39;;;;;;;10.13;6.60;;;21.70;70.70;;;;;;5054329;28;20444;-79
2021/07/19 07:51:08;;;;;;;12.85;6.93;;;21.60;71.40;;;;;;5053927;28;20017;-78
2021/07/19 07:53:33;;;;;;;7.47;6.05;;;21.50;71.60;;;;;;5053996;28;20029;-76
2021/07/19 07:55:59;;;;;;;12.57;6.90;;;21.50;72.30;;;;;;5053915;28;20024;-73
2021/07/19 07:58:26;;;;;;;7.43;5.90;;;21.40;72.60;;;;;;5053945;28;20112;-73
2021/07/19 08:00:52;;;;;;;9.20;5.20;;;21.60;72.20;;;;;;5053771;28;20027;-73
2021/07/19 08:03:18;;;;;;;8.98;5.70;;;21.90;71.20;;;;;;5053646;28;20057;-73
2021/07/19 08:05:43;;;;;;;6.95;4.72;;;22.20;69.20;;;;;;5053517;28;20519;-74
2021/07/19 08:08:10;;;;;;;7.80;4.28;;;22.40;68.90;;;;;;5053583;28;20051;-73
2021/07/19 08:10:35;;;;;;;8.50;5.13;;;22.60;67.80;;;;;;5053672;28;20035;-73
2021/07/19 08:13:01;;;;;;;9.95;5.63;;;22.90;66.50;;;;;;5053856;28;20025;-73
2021/07/19 08:15:27;;;;;;;6.68;5.32;;;22.90;66.00;;;;;;5053672;28;20029;-73
2021/07/19 08:17:52;;;;;;;11.98;6.30;;;23.10;66.00;;;;;;5052772;28;20020;-73
2021/07/19 08:20:18;;;;;;;8.02;6.10;;;23.10;65.10;;;;;;5035565;28;20024;-73
2021/07/19 08:22:47;;;;;;;8.13;5.28;;;23.10;65.80;;;;;;5053256;28;20347;-73
2021/07/19 08:25:16;;;;;;;8.98;5.97;;;23.20;65.70;;;;;;5053273;28;20504;-73
2021/07/19 08:27:42;;;;;;;12.23;6.40;;;23.10;65.40;;;;;;5053461;28;20029;-73
2021/07/19 08:30:10;;;;;;;10.50;6.40;;;22.90;66.00;;;;;;5053650;28;20028;-73
2021/07/19 08:32:35;;;;;;;10.63;6.40;;;22.40;68.70;;;;;;5053481;28;20380;-73
2021/07/19 08:35:01;;;;;;;7.95;5.75;;;22.20;69.90;;;;;;5053299;28;20092;-73
2021/07/19 08:37:27;;;;;;;10.68;6.38;;;22.00;70.60;;;;;;5053232;28;20021;-72
2021/07/19 08:39:54;;;;;;;9.23;6.18;;;22.00;71.00;;;;;;5052836;28;20492;-73
2021/07/19 08:42:19;;;;;;;9.65;6.35;;;22.00;71.40;;;;;;5053066;28;20060;-73
2021/07/19 08:44:46;;;;;;;9.85;6.45;;;22.10;71.60;;;;;;5053338;28;20473;-73
2021/07/19 08:47:13;;;;;;;11.85;6.72;;;22.10;71.00;;;;;;5053363;28;20025;-73
2021/07/19 08:49:40;;;;;;;12.95;6.40;;;22.20;72.10;;;;;;5035400;28;20056;-73
2021/07/19 08:52:07;;;;;;;8.73;5.80;;;22.30;70.30;;;;;;5053232;28;20470;-73
2021/07/19 08:54:36;;;;;;;8.52;5.93;;;22.30;70.70;;;;;;5053074;28;20036;-73
2021/07/19 08:57:04;;;;;;;10.20;6.55;;;22.60;70.00;;;;;;5053052;28;20493;-73
2021/07/19 08:59:30;;;;;;;9.35;6.00;;;22.80;68.90;;;;;;5052905;28;20440;-72
2021/07/19 09:02:00;;;;;;;9.85;5.68;;;22.80;68.30;;;;;;5052880;28;20518;-72
2021/07/19 09:04:26;;;;;;;9.20;6.18;;;23.00;69.60;;;;;;5052770;28;20102;-73
2021/07/19 09:06:51;;;;;;;6.07;5.20;;;23.30;68.50;;;;;;5052763;28;20029;-72
2021/07/19 09:09:30;;;;;;;7.63;4.78;;;23.50;67.40;;;;;;5052789;28;20495;-73
2021/07/19 09:11:57;;;;;;;10.70;6.25;;;23.80;66.90;;;;;;5052759;28;20025;-73
2021/07/19 09:14:24;;;;;;;10.18;6.32;;;23.90;66.10;;;;;;5052869;28;20072;-72
2021/07/19 09:16:51;;;;;;;7.60;5.70;;;23.80;65.40;;;;;;5052703;28;20028;-73
2021/07/19 09:19:19;;;;;;;8.00;5.57;;;23.70;67.20;;;;;;5052638;28;20024;-72
2021/07/19 09:21:48;;;;;;;7.18;5.03;;;23.80;67.20;;;;;;5052555;28;20025;-72
2021/07/19 09:24:19;;;;;;;8.05;5.53;;;23.90;65.90;;;;;;5034635;28;20055;-72
2021/07/19 09:26:46;;;;;;;11.18;6.10;;;24.10;65.40;;;;;;5052632;28;20469;-73
2021/07/19 09:29:14;;;;;;;8.05;5.97;;;24.00;66.10;;;;;;5051787;28;20023;-73
2021/07/19 09:31:45;;;;;;;11.70;6.20;;;24.00;65.00;;;;;;5052541;28;20074;-72
2021/07/19 09:34:14;;;;;;;6.88;4.90;;;24.00;65.40;;;;;;5052641;28;20037;-73
2021/07/19 09:36:54;;;;;;;8.70;4.90;;;24.10;66.30;;;;;;5034894;28;20120;-73
2021/07/19 09:39:20;;;;;;;7.50;5.22;;;24.40;65.20;;;;;;5053051;28;20486;-72
2021/07/19 09:41:46;;;;;;;6.63;4.30;;;24.50;63.50;;;;;;5052613;28;20108;-76
2021/07/19 09:44:11;;;;;;;9.95;5.45;;;24.60;63.00;;;;;;5052614;28;20017;-73
2021/07/19 09:46:38;;;;;;;11.60;5.30;;;24.60;64.10;;;;;;5052606;28;20093;-73
2021/07/19 09:49:04;;;;;;;6.38;4.65;;;24.60;62.10;;;;;;5052623;28;20037;-73
2021/07/19 09:51:32;;;;;;;5.40;4.35;;;24.70;62.10;;;;;;5052521;28;20025;-75
2021/07/19 09:54:18;;;;;;;8.90;4.80;;;24.90;62.30;;;;;;5052227;28;20524;-72
2021/07/19 09:56:44;;;;;;;8.35;4.57;;;24.90;60.30;;;;;;5051745;28;20044;-73
2021/07/19 09:59:13;;;;;;;5.72;4.35;;;24.60;59.80;;;;;;5052237;28;20021;-72
2021/07/19 10:01:42;;;;;;;11.43;4.50;;;24.30;60.70;;;;;;5051893;28;20033;-72
2021/07/19 10:04:09;;;;;;;7.10;4.57;;;24.30;59.80;;;;;;5052481;28;20055;-77
2021/07/19 10:06:36;;;;;;;8.48;4.20;;;24.50;58.70;;;;;;5052122;28;20032;-78
2021/07/19 10:09:06;;;;;;;7.82;3.95;;;24.70;58.00;;;;;;5051947;28;20101;-78
2021/07/19 10:11:38;;;;;;;7.65;3.90;;;24.70;57.70;;;;;;5051889;28;20067;-78
2021/07/19 10:14:05;;;;;;;8.77;3.90;;;24.70;58.00;;;;;;5051741;28;20389;-78
2021/07/19 10:16:31;;;;;;;7.28;3.95;;;24.90;57.50;;;;;;5051757;28;20404;-78
2021/07/19 10:18:59;;;;;;;6.97;4.00;;;25.40;57.80;;;;;;5052066;28;20496;-78
2021/07/19 10:21:29;;;;;;;6.00;4.13;;;25.70;55.20;;;;;;5051907;28;20056;-79
2021/07/19 10:23:58;;;;;;;6.82;3.95;;;25.60;54.20;;;;;;5051902;28;20028;-86
2021/07/19 10:26:25;;;;;;;7.90;4.50;;;25.80;54.20;;;;;;5052167;28;20021;-84
2021/07/19 10:28:51;;;;;;;8.73;4.22;;;26.10;54.40;;;;;;5051927;28;20029;-86
2021/07/19 10:31:17;;;;;;;6.13;3.50;;;26.20;52.50;;;;;;5052040;28;20114;-87
2021/07/19 10:33:45;;;;;;;5.85;3.75;;;26.20;52.00;;;;;;5052164;28;20025;-86
2021/07/19 10:36:12;;;;;;;4.68;3.85;;;26.40;52.60;;;;;;5051859;28;20052;-84
2021/07/19 10:38:40;;;;;;;7.15;3.55;;;26.70;51.80;;;;;;5051988;28;20017;-84
2021/07/19 10:41:07;;;;;;;5.32;3.85;;;26.80;50.70;;;;;;5054143;28;20037;-85
2021/07/19 10:43:33;;;;;;;7.55;4.10;;;26.90;48.70;;;;;;5055560;28;20053;-85
2021/07/19 10:46:11;;;;;;;14.02;4.05;;;27.10;50.60;;;;;;5038749;28;20057;-90
2021/07/19 10:48:37;;;;;;;4.75;3.85;;;27.20;48.40;;;;;;5037239;28;20079;-80
2021/07/19 10:51:20;;;;;;;7.30;3.85;;;27.40;47.90;;;;;;5055378;28;20205;-85
2021/07/19 10:53:46;;;;;;;7.97;3.88;;;27.60;48.00;;;;;;5055557;28;20032;-84
2021/07/19 10:56:13;;;;;;;9.10;4.20;;;27.70;50.40;;;;;;5055395;28;20021;-78
2021/07/19 10:58:49;;;;;;;7.32;4.10;;;27.70;48.30;;;;;;5055276;28;20025;-83
2021/07/19 11:01:23;;;;;;;11.35;3.90;;;27.70;48.80;;;;;;5055334;28;20055;-85
2021/07/19 11:03:49;;;;;;;5.20;3.45;;;27.40;47.10;;;;;;5039137;28;20355;-83
2021/07/19 11:06:28;;;;;;;5.93;3.88;;;27.00;48.90;;;;;;5055171;28;20047;-82
2021/07/19 11:08:54;;;;;;;8.57;4.00;;;26.70;49.00;;;;;;5055197;28;20035;-83
2021/07/19 11:11:29;;;;;;;5.90;3.50;;;26.80;48.70;;;;;;5054966;28;20021;-83
2021/07/19 11:13:57;;;;;;;9.25;4.03;;;26.90;49.10;;;;;;5055038;28;20527;-83
2021/07/19 11:16:23;;;;;;;9.80;4.10;;;27.30;49.90;;;;;;5055080;28;20055;-81
2021/07/19 11:18:57;;;;;;;5.28;3.33;;;27.50;47.50;;;;;;5054899;28;20033;-81
2021/07/19 11:21:26;;;;;;;14.23;3.88;;;27.80;45.80;;;;;;5055109;28;20056;-79
2021/07/19 11:23:53;;;;;;;7.60;4.07;;;27.80;43.90;;;;;;5054817;28;20025;-79
2021/07/19 11:26:21;;;;;;;5.68;3.10;;;28.00;44.40;;;;;;5054844;28;20082;-79
2021/07/19 11:28:47;;;;;;;10.15;3.97;;;27.90;42.80;;;;;;5054349;28;20029;-78
2021/07/19 11:31:19;;;;;;;8.32;3.83;;;27.90;42.70;;;;;;5054596;28;20044;-80
2021/07/19 11:33:56;;;;;;;7.03;3.05;;;27.90;42.90;;;;;;5054513;28;20107;-79
2021/07/19 11:36:28;;;;;;;8.05;3.17;;;28.30;43.80;;;;;;5036576;28;20376;-78
2021/07/19 11:38:55;;;;;;;8.63;4.03;;;28.50;41.90;;;;;;5054592;28;20100;-79
2021/07/19 11:41:24;;;;;;;11.80;3.80;;;28.20;41.80;;;;;;5054255;28;20021;-79
2021/07/19 11:43:52;;;;;;;8.35;3.60;;;27.90;41.40;;;;;;5054490;28;20485;-79
2021/07/19 11:46:25;;;;;;;6.70;3.50;;;27.90;41.60;;;;;;5054445;28;20027;-79
2021/07/19 11:48:57;;;;;;;8.68;3.42;;;28.30;43.50;;;;;;5054297;28;20032;-79
2021/07/19 11:51:24;;;;;;;9.40;3.53;;;28.40;41.20;;;;;;5054293;28;20021;-79
2021/07/19 11:53:49;;;;;;;5.80;2.72;;;28.50;39.30;;;;;;5053804;28;20025;-79
2021/07/19 11:56:18;;;;;;;13.95;3.80;;;28.40;39.80;;;;;;5054128;28;20124;-79
2021/07/19 11:58:54;;;;;;;8.63;3.80;;;28.60;39.70;;;;;;5054284;28;20086;-79
2021/07/19 12:01:26;;;;;;;7.40;3.17;;;28.80;39.40;;;;;;5036035;28;20020;-79
2021/07/19 12:03:54;;;;;;;7.30;2.85;;;29.00;39.80;;;;;;5053989;28;20049;-79
2021/07/19 12:06:20;;;;;;;9.23;3.00;;;28.80;37.90;;;;;;5054214;28;20497;-79
2021/07/19 12:08:54;;;;;;;6.50;2.88;;;28.60;38.60;;;;;;5054028;28;20028;-79
2021/07/19 12:11:20;;;;;;;4.55;2.80;;;28.90;38.40;;;;;;5054076;28;20071;-79
2021/07/19 12:13:46;;;;;;;8.80;3.15;;;29.10;39.00;;;;;;5053908;28;20064;-79
2021/07/19 12:16:13;;;;;;;8.20;3.22;;;29.30;37.50;;;;;;5053863;28;20056;-80
2021/07/19 12:18:47;;;;;;;5.13;2.90;;;29.00;37.90;;;;;;5053541;28;20491;-79
2021/07/19 12:21:29;;;;;;;4.33;3.10;;;29.00;38.20;;;;;;5053987;28;20056;-79
2021/07/19 12:23:57;;;;;;;6.63;2.60;;;29.10;37.30;;;;;;5053708;28;20036;-79
2021/07/19 12:26:36;;;;;;;6.43;2.78;;;29.50;37.60;;;;;;5053865;28;20416;-79
2021/07/19 12:29:09;;;;;;;7.80;2.85;;;29.30;36.30;;;;;;5053634;28;20021;-79
2021/07/19 12:31:46;;;;;;;6.18;2.72;;;29.20;36.90;;;;;;5053686;28;20469;-79
2021/07/19 12:34:16;;;;;;;3.55;2.20;;;28.80;36.70;;;;;;5053525;28;20032;-80
2021/07/19 12:36:51;;;;;;;4.60;2.72;;;29.20;38.50;;;;;;5035686;28;20025;-80
2021/07/19 12:39:19;;;;;;;3.72;2.40;;;29.20;37.20;;;;;;5055335;28;20021;-80
2021/07/19 12:41:47;;;;;;;8.32;2.55;;;29.50;38.40;;;;;;5053439;28;20141;-80
2021/07/19 12:44:13;;;;;;;2.95;2.47;;;29.80;37.50;;;;;;5053611;28;20029;-79
2021/07/19 12:46:44;;;;;;;5.05;2.58;;;29.20;36.70;;;;;;5035033;28;20419;-81
2021/07/19 12:49:11;;;;;;;4.70;2.63;;;29.10;38.50;;;;;;5053416;28;20044;-80